Time;durP1;ratioP1;P1;durP2;ratioP2;P2;SDS_P1;SDS_P2;PMS_P1;PMS_P2;Temp;Humidity;BMP_temperature;BMP_pressure;BME280_temperature;BME280_humidity;BME280_pressure;Samples;Min_cycle;Max_cycle;Signal;HPM_P1;HPM_P2
2023/09/01 00:02:04;;;;;;;2.83;2.17;;;;;;;;;;5118733;28;20233;-75
2023/09/01 00:04:34;;;;;;;3.57;1.73;;;;;;;;;;5118777;28;20207;-75
2023/09/01 00:07:02;;;;;;;3.63;1.93;;;;;;;;;;5118865;28;20261;-73
2023/09/01 00:09:30;;;;;;;3.23;1.90;;;;;;;;;;5114140;28;20258;-75
2023/09/01 00:11:58;;;;;;;3.20;2.27;;;;;;;;;;5116633;28;20591;-75
2023/09/01 00:14:26;;;;;;;3.17;2.00;;;;;;;;;;5118478;28;20229;-73
2023/09/01 00:16:54;;;;;;;3.30;1.93;;;;;;;;;;5118360;28;20601;-73
2023/09/01 00:19:22;;;;;;;2.60;1.73;;;;;;;;;;5118592;28;20212;-73
2023/09/01 00:21:52;;;;;;;2.57;2.17;;;;;;;;;;5118421;28;20224;-73
2023/09/01 00:24:20;;;;;;;3.87;2.00;;;;;;;;;;5118184;28;20204;-73
2023/09/01 00:26:48;;;;;;;2.67;2.03;;;;;;;;;;5107419;28;20203;-73
2023/09/01 00:29:16;;;;;;;3.67;2.10;;;;;;;;;;5103340;28;20205;-73
2023/09/01 00:31:44;;;;;;;5.80;2.20;;;;;;;;;;5105266;28;20258;-73
2023/09/01 00:34:12;;;;;;;4.30;1.87;;;;;;;;;;5115400;28;20266;-73
2023/09/01 00:36:40;;;;;;;2.27;1.80;;;;;;;;;;5100317;28;20244;-73
2023/09/01 00:39:10;;;;;;;2.40;1.90;;;;;;;;;;5111050;28;20211;-73
2023/09/01 00:41:38;;;;;;;3.97;2.40;;;;;;;;;;5108581;28;20216;-75
2023/09/01 00:44:06;;;;;;;5.97;2.10;;;;;;;;;;5100305;28;20573;-73
2023/09/01 00:46:34;;;;;;;3.37;2.20;;;;;;;;;;5103631;28;20201;-73
2023/09/01 00:49:02;;;;;;;6.33;2.97;;;;;;;;;;5102968;28;20224;-73
2023/09/01 00:51:30;;;;;;;4.07;2.33;;;;;;;;;;5097646;28;20228;-73
2023/09/01 00:53:58;;;;;;;3.40;2.10;;;;;;;;;;5111682;28;20205;-73
2023/09/01 00:56:27;;;;;;;7.03;2.33;;;;;;;;;;5097893;28;20275;-74
2023/09/01 00:58:55;;;;;;;5.80;2.60;;;;;;;;;;5100187;28;20630;-74
2023/09/01 01:01:23;;;;;;;4.33;2.40;;;;;;;;;;5099833;28;20261;-73
2023/09/01 01:03:53;;;;;;;4.80;2.30;;;;;;;;;;5112282;28;20205;-73
2023/09/01 01:06:26;;;;;;;7.27;3.23;;;;;;;;;;5108264;28;20275;-74
2023/09/01 01:08:57;;;;;;;4.60;2.17;;;;;;;;;;5110312;28;20207;-74
2023/09/01 01:11:31;;;;;;;6.13;1.90;;;;;;;;;;5112015;28;20883;-74
2023/09/01 01:14:01;;;;;;;4.60;2.10;;;;;;;;;;5113731;28;20220;-74
2023/09/01 01:16:30;;;;;;;4.73;2.10;;;;;;;;;;5107124;28;20224;-74
2023/09/01 01:18:59;;;;;;;5.57;2.40;;;;;;;;;;5113902;28;20570;-74
2023/09/01 01:21:30;;;;;;;2.53;1.83;;;;;;;;;;5103161;28;20269;-74
2023/09/01 01:24:00;;;;;;;3.60;1.90;;;;;;;;;;5105049;28;20229;-74
2023/09/01 01:26:28;;;;;;;5.97;2.40;;;;;;;;;;5099976;28;20201;-75
2023/09/01 01:28:56;;;;;;;5.80;2.57;;;;;;;;;;5111931;28;20197;-74
2023/09/01 01:31:25;;;;;;;4.83;2.30;;;;;;;;;;5100890;28;20246;-74
2023/09/01 01:33:55;;;;;;;6.63;2.40;;;;;;;;;;5104146;28;20258;-74
2023/09/01 01:36:31;;;;;;;4.10;2.40;;;;;;;;;;5103896;28;20265;-74
2023/09/01 01:39:04;;;;;;;3.60;2.00;;;;;;;;;;5117179;28;20717;-74
2023/09/01 01:41:34;;;;;;;7.17;2.00;;;;;;;;;;5111083;28;20217;-74
2023/09/01 01:44:04;;;;;;;3.90;2.10;;;;;;;;;;5116668;28;20302;-74
2023/09/01 01:46:34;;;;;;;4.10;1.90;;;;;;;;;;5103073;28;20204;-74
2023/09/01 01:49:02;;;;;;;4.93;1.97;;;;;;;;;;5113870;28;20207;-74
2023/09/01 01:51:30;;;;;;;3.97;1.90;;;;;;;;;;5115671;27;20277;-74
2023/09/01 01:53:57;;;;;;;3.10;2.47;;;;;;;;;;5108480;28;20210;-74
2023/09/01 01:56:27;;;;;;;2.97;1.93;;;;;;;;;;5119941;28;20228;-74
2023/09/01 01:59:04;;;;;;;5.83;2.23;;;;;;;;;;5118608;28;20203;-74
2023/09/01 02:01:32;;;;;;;3.43;2.70;;;;;;;;;;5112940;28;20246;-74
2023/09/01 02:04:00;;;;;;;3.87;2.13;;;;;;;;;;5122024;27;20203;-74
2023/09/01 02:06:29;;;;;;;4.43;2.17;;;;;;;;;;5121205;28;20214;-74
2023/09/01 02:08:57;;;;;;;3.77;2.23;;;;;;;;;;5119938;28;20210;-74
2023/09/01 02:11:25;;;;;;;3.27;2.37;;;;;;;;;;5120514;27;20224;-74
2023/09/01 02:13:54;;;;;;;3.63;2.10;;;;;;;;;;5120787;28;20732;-74
2023/09/01 02:16:24;;;;;;;3.93;2.33;;;;;;;;;;5120912;28;20229;-74
2023/09/01 02:18:52;;;;;;;5.63;2.57;;;;;;;;;;5120638;27;20206;-74
2023/09/01 02:21:21;;;;;;;4.83;2.37;;;;;;;;;;5120879;28;20221;-74
2023/09/01 02:23:49;;;;;;;3.47;2.23;;;;;;;;;;5120828;28;20206;-74
2023/09/01 02:26:17;;;;;;;2.70;2.07;;;;;;;;;;5117065;28;20211;-74
2023/09/01 02:28:45;;;;;;;6.23;2.30;;;;;;;;;;5109105;28;20203;-74
2023/09/01 02:31:15;;;;;;;5.27;2.27;;;;;;;;;;5110072;28;20231;-74
2023/09/01 02:33:43;;;;;;;2.63;2.30;;;;;;;;;;5106330;28;20205;-75
2023/09/01 02:36:28;;;;;;;5.90;2.17;;;;;;;;;;5119674;28;20223;-74
2023/09/01 02:38:56;;;;;;;3.17;1.97;;;;;;;;;;5118174;28;20665;-74
2023/09/01 02:41:25;;;;;;;3.37;2.17;;;;;;;;;;5109076;28;20223;-74
2023/09/01 02:43:53;;;;;;;3.17;2.13;;;;;;;;;;5105937;28;20202;-74
2023/09/01 02:46:22;;;;;;;2.87;1.90;;;;;;;;;;5107724;28;20203;-74
2023/09/01 02:48:51;;;;;;;4.53;2.27;;;;;;;;;;5105538;28;20239;-74
2023/09/01 02:51:19;;;;;;;4.07;2.10;;;;;;;;;;5103911;28;20219;-74
2023/09/01 02:53:47;;;;;;;4.80;2.27;;;;;;;;;;5102211;28;20208;-74
2023/09/01 02:56:17;;;;;;;3.43;2.07;;;;;;;;;;5102251;28;20230;-73
2023/09/01 02:58:45;;;;;;;4.20;2.10;;;;;;;;;;5104682;28;20254;-73
2023/09/01 03:01:13;;;;;;;4.90;2.50;;;;;;;;;;5109736;28;20216;-73
2023/09/01 03:03:43;;;;;;;4.57;2.37;;;;;;;;;;5120103;28;20213;-73
2023/09/01 03:06:11;;;;;;;4.80;2.47;;;;;;;;;;5114696;28;20208;-73
2023/09/01 03:08:39;;;;;;;4.67;2.20;;;;;;;;;;5114680;28;20204;-73
2023/09/01 03:11:07;;;;;;;3.70;2.10;;;;;;;;;;5119118;28;20660;-74
2023/09/01 03:13:35;;;;;;;4.77;2.10;;;;;;;;;;5119408;28;20202;-73
2023/09/01 03:16:04;;;;;;;4.93;2.30;;;;;;;;;;5118797;28;20217;-74
2023/09/01 03:18:32;;;;;;;4.67;2.10;;;;;;;;;;5116604;28;20212;-73
2023/09/01 03:21:10;;;;;;;3.93;2.40;;;;;;;;;;5119263;28;20232;-73
2023/09/01 03:23:39;;;;;;;2.27;2.07;;;;;;;;;;5120189;28;20205;-73
2023/09/01 03:26:07;;;;;;;6.73;2.00;;;;;;;;;;5110533;28;20201;-74
2023/09/01 03:28:35;;;;;;;4.40;1.87;;;;;;;;;;5105667;28;20198;-75
2023/09/01 03:31:03;;;;;;;5.27;2.00;;;;;;;;;;5105753;28;20226;-73
2023/09/01 03:33:31;;;;;;;4.73;2.03;;;;;;;;;;5104199;28;20200;-73
2023/09/01 03:36:01;;;;;;;3.27;2.00;;;;;;;;;;5113692;28;20689;-72
2023/09/01 03:38:31;;;;;;;2.93;1.67;;;;;;;;;;5098585;28;20584;-73
2023/09/01 03:41:01;;;;;;;3.57;1.60;;;;;;;;;;5109967;28;20217;-74
2023/09/01 03:43:29;;;;;;;2.80;1.80;;;;;;;;;;5112963;28;20794;-73
2023/09/01 03:45:58;;;;;;;3.77;1.90;;;;;;;;;;5105140;28;20204;-73
2023/09/01 03:48:27;;;;;;;7.13;1.70;;;;;;;;;;5099841;28;20227;-73
2023/09/01 03:51:08;;;;;;;3.03;1.70;;;;;;;;;;5112558;28;20223;-73
2023/09/01 03:53:38;;;;;;;2.57;1.80;;;;;;;;;;5112572;28;20666;-72
2023/09/01 03:56:10;;;;;;;3.20;1.90;;;;;;;;;;5114275;28;20204;-73
2023/09/01 03:58:38;;;;;;;4.70;1.80;;;;;;;;;;5114258;28;20217;-74
2023/09/01 04:01:11;;;;;;;6.10;1.87;;;;;;;;;;5116252;28;20273;-74
2023/09/01 04:03:41;;;;;;;6.47;1.67;;;;;;;;;;5118101;28;20207;-73
2023/09/01 04:06:09;;;;;;;2.77;1.83;;;;;;;;;;5116303;28;20202;-73
2023/09/01 04:08:38;;;;;;;2.60;2.00;;;;;;;;;;5118007;28;20650;-74
2023/09/01 04:11:06;;;;;;;5.67;1.60;;;;;;;;;;5117113;28;20316;-74
2023/09/01 04:13:35;;;;;;;4.87;2.00;;;;;;;;;;5118048;28;20208;-74
2023/09/01 04:16:04;;;;;;;1.40;1.30;;;;;;;;;;5118985;28;20228;-74
2023/09/01 04:18:33;;;;;;;3.53;1.77;;;;;;;;;;5118573;28;20228;-72
2023/09/01 04:21:01;;;;;;;3.40;1.70;;;;;;;;;;5118760;28;20247;-73
2023/09/01 04:23:31;;;;;;;2.97;1.90;;;;;;;;;;5118293;28;20238;-73
2023/09/01 04:26:02;;;;;;;3.23;2.30;;;;;;;;;;5114097;28;20193;-73
2023/09/01 04:28:31;;;;;;;5.93;2.80;;;;;;;;;;5114450;28;20203;-74
2023/09/01 04:30:59;;;;;;;5.77;2.77;;;;;;;;;;5112746;28;20225;-74
2023/09/01 04:33:28;;;;;;;6.90;2.53;;;;;;;;;;5116190;28;20201;-74
2023/09/01 04:35:57;;;;;;;5.33;3.03;;;;;;;;;;5115634;28;20204;-74
2023/09/01 04:38:25;;;;;;;5.70;2.83;;;;;;;;;;5118217;28;20224;-74
2023/09/01 04:40:57;;;;;;;5.50;2.83;;;;;;;;;;5115795;28;20312;-74
2023/09/01 04:43:27;;;;;;;6.13;3.10;;;;;;;;;;5109891;28;20201;-73
2023/09/01 04:45:55;;;;;;;4.60;3.03;;;;;;;;;;5110733;28;20200;-74
2023/09/01 04:48:23;;;;;;;6.63;2.57;;;;;;;;;;5117824;28;20201;-74
2023/09/01 04:50:51;;;;;;;3.83;2.33;;;;;;;;;;5112613;28;20217;-74
2023/09/01 04:53:20;;;;;;;3.30;2.13;;;;;;;;;;5117080;28;20285;-75
2023/09/01 04:55:48;;;;;;;2.17;1.93;;;;;;;;;;5113081;28;20208;-74
2023/09/01 04:58:17;;;;;;;5.40;1.90;;;;;;;;;;5117055;28;20227;-75
2023/09/01 05:00:46;;;;;;;3.57;2.27;;;;;;;;;;5115851;28;20255;-73
2023/09/01 05:03:14;;;;;;;3.33;2.20;;;;;;;;;;5120645;28;20242;-74
2023/09/01 05:05:42;;;;;;;3.83;2.07;;;;;;;;;;5113553;28;20222;-74
2023/09/01 05:08:10;;;;;;;2.40;2.10;;;;;;;;;;5108292;28;20200;-73
2023/09/01 05:10:38;;;;;;;3.20;1.80;;;;;;;;;;5117154;28;20226;-75
2023/09/01 05:13:06;;;;;;;6.10;2.23;;;;;;;;;;5107969;28;20206;-73
2023/09/01 05:15:34;;;;;;;1.93;1.73;;;;;;;;;;5107494;28;20253;-73
2023/09/01 05:18:04;;;;;;;13.77;4.20;;;;;;;;;;5110078;28;20658;-74
2023/09/01 05:20:32;;;;;;;3.77;2.33;;;;;;;;;;5114817;28;20231;-74
2023/09/01 05:23:01;;;;;;;2.83;2.00;;;;;;;;;;5113990;28;20197;-74
2023/09/01 05:25:29;;;;;;;4.30;2.43;;;;;;;;;;5117909;28;20582;-73
2023/09/01 05:27:57;;;;;;;6.37;3.60;;;;;;;;;;5104581;28;20210;-73
2023/09/01 05:30:25;;;;;;;7.00;3.30;;;;;;;;;;5113994;28;20223;-74
2023/09/01 05:32:53;;;;;;;8.30;4.23;;;;;;;;;;5115382;28;20197;-73
2023/09/01 05:35:22;;;;;;;7.93;3.50;;;;;;;;;;5120044;28;20224;-74
2023/09/01 05:37:50;;;;;;;9.43;3.50;;;;;;;;;;5119080;28;20228;-74
2023/09/01 05:40:18;;;;;;;5.97;2.83;;;;;;;;;;5112364;28;20224;-74
2023/09/01 05:42:46;;;;;;;6.77;3.37;;;;;;;;;;5118199;28;20201;-73
2023/09/01 05:45:14;;;;;;;5.23;2.83;;;;;;;;;;5106843;28;20247;-74
2023/09/01 05:47:43;;;;;;;9.03;3.27;;;;;;;;;;5109720;28;20231;-72
2023/09/01 05:50:11;;;;;;;7.77;3.00;;;;;;;;;;5115021;28;20223;-73
2023/09/01 05:52:41;;;;;;;4.70;2.63;;;;;;;;;;5118537;28;20203;-72
2023/09/01 05:55:09;;;;;;;5.27;2.70;;;;;;;;;;5117384;28;20197;-73
2023/09/01 05:57:37;;;;;;;8.43;2.93;;;;;;;;;;5108195;28;20192;-73
2023/09/01 06:00:06;;;;;;;8.00;3.40;;;;;;;;;;5121083;28;20224;-74
2023/09/01 06:02:34;;;;;;;4.73;3.23;;;;;;;;;;5120933;27;20224;-74
2023/09/01 06:05:03;;;;;;;9.47;4.10;;;;;;;;;;5122274;27;20201;-73
2023/09/01 06:07:31;;;;;;;3.70;2.83;;;;;;;;;;5119307;28;20208;-73
2023/09/01 06:10:01;;;;;;;6.17;3.17;;;;;;;;;;5116322;28;20267;-74
2023/09/01 06:12:29;;;;;;;8.40;3.50;;;;;;;;;;5114206;28;20208;-74
2023/09/01 06:14:57;;;;;;;5.40;2.80;;;;;;;;;;5112630;28;20258;-73
2023/09/01 06:17:25;;;;;;;11.23;3.03;;;;;;;;;;5105690;28;20216;-73
2023/09/01 06:20:12;;;;;;;5.90;2.60;;;;;;;;;;5104659;28;20696;-73
2023/09/01 06:22:46;;;;;;;7.40;2.70;;;;;;;;;;5103170;28;20211;-75
2023/09/01 06:25:16;;;;;;;7.63;2.67;;;;;;;;;;5107236;28;20573;-74
2023/09/01 06:27:44;;;;;;;6.57;2.33;;;;;;;;;;5116453;28;20208;-74
2023/09/01 06:30:12;;;;;;;2.80;2.40;;;;;;;;;;5113384;28;20276;-72
2023/09/01 06:32:40;;;;;;;5.10;2.57;;;;;;;;;;5118746;28;20204;-75
2023/09/01 06:35:09;;;;;;;5.33;2.53;;;;;;;;;;5118482;28;20204;-75
2023/09/01 06:37:37;;;;;;;6.70;2.63;;;;;;;;;;5117776;27;20201;-75
2023/09/01 06:40:05;;;;;;;4.40;2.77;;;;;;;;;;5106207;28;20632;-75
2023/09/01 06:42:35;;;;;;;5.70;3.03;;;;;;;;;;5114141;28;20213;-73
2023/09/01 06:45:03;;;;;;;8.90;2.60;;;;;;;;;;5103632;28;20194;-73
2023/09/01 06:47:31;;;;;;;6.80;2.37;;;;;;;;;;5110313;27;20238;-75
2023/09/01 06:49:59;;;;;;;5.93;2.60;;;;;;;;;;5124086;27;20283;-75
2023/09/01 06:52:27;;;;;;;5.77;2.57;;;;;;;;;;5101043;28;20672;-73
2023/09/01 06:54:55;;;;;;;4.67;2.60;;;;;;;;;;5103478;28;20198;-75
2023/09/01 06:57:23;;;;;;;4.70;2.33;;;;;;;;;;5101241;28;20219;-75
2023/09/01 06:59:53;;;;;;;6.60;2.63;;;;;;;;;;5108793;28;20223;-73
2023/09/01 07:02:21;;;;;;;4.40;2.30;;;;;;;;;;5106354;28;20253;-66
2023/09/01 07:04:49;;;;;;;5.83;1.90;;;;;;;;;;5105267;27;20211;-67
2023/09/01 07:07:17;;;;;;;4.53;2.00;;;;;;;;;;5102684;28;20661;-69
2023/09/01 07:09:45;;;;;;;9.80;2.37;;;;;;;;;;5115219;28;20196;-69
2023/09/01 07:12:13;;;;;;;3.37;1.80;;;;;;;;;;5112206;28;20246;-68
2023/09/01 07:14:41;;;;;;;3.83;1.90;;;;;;;;;;5105954;28;20204;-68
2023/09/01 07:17:12;;;;;;;3.13;2.00;;;;;;;;;;5116813;28;20206;-69
2023/09/01 07:19:40;;;;;;;3.27;1.70;;;;;;;;;;5116765;28;20222;-73
2023/09/01 07:22:08;;;;;;;4.87;2.40;;;;;;;;;;5103171;28;20200;-74
2023/09/01 07:24:36;;;;;;;3.17;2.30;;;;;;;;;;5115058;28;20207;-72
2023/09/01 07:27:06;;;;;;;3.80;2.00;;;;;;;;;;5113747;28;20657;-74
2023/09/01 07:29:34;;;;;;;4.37;2.67;;;;;;;;;;5115142;28;20204;-75
2023/09/01 07:32:03;;;;;;;4.73;2.23;;;;;;;;;;5112854;28;20203;-74
2023/09/01 07:34:33;;;;;;;3.13;1.90;;;;;;;;;;5116771;28;20200;-75
2023/09/01 07:37:01;;;;;;;5.30;2.33;;;;;;;;;;5115914;28;20197;-74
2023/09/01 07:39:29;;;;;;;3.20;2.20;;;;;;;;;;5118900;28;20224;-73
2023/09/01 07:41:57;;;;;;;7.73;2.77;;;;;;;;;;5105822;28;20218;-74
2023/09/01 07:44:25;;;;;;;8.07;3.57;;;;;;;;;;5117630;27;20204;-74
2023/09/01 07:46:53;;;;;;;3.30;2.07;;;;;;;;;;5118269;28;20202;-74
2023/09/01 07:49:21;;;;;;;5.37;2.00;;;;;;;;;;5117978;28;20191;-71
2023/09/01 07:51:51;;;;;;;5.37;2.23;;;;;;;;;;5117624;28;20240;-70
2023/09/01 07:54:19;;;;;;;4.17;2.20;;;;;;;;;;5117177;28;20280;-70
2023/09/01 07:56:47;;;;;;;3.93;2.20;;;;;;;;;;5116066;28;20247;-71
2023/09/01 07:59:15;;;;;;;5.23;2.50;;;;;;;;;;5117923;28;20225;-71
2023/09/01 08:01:45;;;;;;;5.20;2.47;;;;;;;;;;5117739;28;20257;-71
2023/09/01 08:04:13;;;;;;;4.97;2.70;;;;;;;;;;5116134;28;20205;-71
2023/09/01 08:06:43;;;;;;;5.10;2.30;;;;;;;;;;5117963;28;20206;-71
2023/09/01 08:09:12;;;;;;;5.93;2.67;;;;;;;;;;5115594;28;20191;-71
2023/09/01 08:11:40;;;;;;;5.33;2.43;;;;;;;;;;5117744;28;20223;-71
2023/09/01 08:14:08;;;;;;;3.60;2.53;;;;;;;;;;5117344;28;20241;-71
2023/09/01 08:16:36;;;;;;;5.23;2.47;;;;;;;;;;5118178;28;20208;-71
2023/09/01 08:19:04;;;;;;;6.67;2.80;;;;;;;;;;5117715;28;20238;-72
2023/09/01 08:21:33;;;;;;;5.07;3.10;;;;;;;;;;5118367;28;20231;-71
2023/09/01 08:24:02;;;;;;;5.03;2.50;;;;;;;;;;5112789;28;20224;-70
2023/09/01 08:26:33;;;;;;;3.93;2.60;;;;;;;;;;5102862;28;20212;-71
2023/09/01 08:29:01;;;;;;;7.10;3.13;;;;;;;;;;5094308;28;20212;-70
2023/09/01 08:31:29;;;;;;;4.60;2.43;;;;;;;;;;5094396;28;20239;-70
2023/09/01 08:33:57;;;;;;;7.27;2.73;;;;;;;;;;5094934;28;20203;-69
2023/09/01 08:36:26;;;;;;;9.20;4.20;;;;;;;;;;5092771;28;20208;-67
2023/09/01 08:38:54;;;;;;;43.70;10.50;;;;;;;;;;5103026;28;20731;-70
2023/09/01 08:41:24;;;;;;;6.07;3.17;;;;;;;;;;5097047;28;20225;-70
2023/09/01 08:43:57;;;;;;;4.57;3.00;;;;;;;;;;5096030;28;20678;-70
2023/09/01 08:46:30;;;;;;;4.70;2.33;;;;;;;;;;5090906;28;21848;-70
2023/09/01 08:48:59;;;;;;;6.20;2.67;;;;;;;;;;5095373;28;20661;-71
2023/09/01 08:51:27;;;;;;;4.67;2.20;;;;;;;;;;5106621;28;20249;-71
2023/09/01 08:53:55;;;;;;;4.87;1.80;;;;;;;;;;5092557;28;20215;-71
2023/09/01 08:56:23;;;;;;;3.63;2.23;;;;;;;;;;5095853;28;20660;-70
2023/09/01 08:58:53;;;;;;;24.77;17.83;;;;;;;;;;5094750;28;20202;-70
2023/09/01 09:01:22;;;;;;;4.83;3.37;;;;;;;;;;5092995;28;20240;-71
2023/09/01 09:03:50;;;;;;;6.27;3.17;;;;;;;;;;5091496;28;20284;-70
2023/09/01 09:06:31;;;;;;;5.60;2.77;;;;;;;;;;5094033;28;20202;-71
2023/09/01 09:09:04;;;;;;;5.00;2.33;;;;;;;;;;5091819;28;20200;-71
2023/09/01 09:11:32;;;;;;;4.43;2.37;;;;;;;;;;5091595;28;20363;-71
2023/09/01 09:14:02;;;;;;;3.70;2.20;;;;;;;;;;5091078;28;20206;-71
2023/09/01 09:16:50;;;;;;;3.73;2.13;;;;;;;;;;5094118;28;20205;-70
2023/09/01 09:19:19;;;;;;;3.60;2.30;;;;;;;;;;5093275;28;20201;-71
2023/09/01 09:21:47;;;;;;;2.37;1.80;;;;;;;;;;5091440;28;20249;-71
2023/09/01 09:24:15;;;;;;;2.33;1.40;;;;;;;;;;5091657;28;20243;-71
2023/09/01 09:26:56;;;;;;;2.63;1.83;;;;;;;;;;5095945;28;20223;-70
2023/09/01 09:29:25;;;;;;;2.40;1.40;;;;;;;;;;5097173;28;20254;-70
2023/09/01 09:31:53;;;;;;;6.07;1.70;;;;;;;;;;5100404;28;20693;-71
2023/09/01 09:34:23;;;;;;;3.27;1.70;;;;;;;;;;5095831;28;20202;-71
2023/09/01 09:36:52;;;;;;;1.93;1.63;;;;;;;;;;5095029;28;20554;-70
2023/09/01 09:39:23;;;;;;;3.80;1.40;;;;;;;;;;5117333;28;20669;-71
2023/09/01 09:41:51;;;;;;;3.07;2.17;;;;;;;;;;5116036;28;20237;-72
2023/09/01 09:44:23;;;;;;;2.50;1.20;;;;;;;;;;5117491;28;20255;-71
2023/09/01 09:46:53;;;;;;;1.70;1.00;;;;;;;;;;5103484;28;20211;-71
2023/09/01 09:49:24;;;;;;;2.27;1.50;;;;;;;;;;5114123;28;20235;-70
2023/09/01 09:51:53;;;;;;;2.60;1.83;;;;;;;;;;5100183;28;20225;-72
2023/09/01 09:54:22;;;;;;;3.17;1.27;;;;;;;;;;5103139;28;20197;-72
2023/09/01 09:56:51;;;;;;;3.53;1.40;;;;;;;;;;5120737;28;20205;-70
2023/09/01 09:59:23;;;;;;;2.23;1.43;;;;;;;;;;5121458;28;20208;-73
2023/09/01 10:01:54;;;;;;;3.47;1.53;;;;;;;;;;5120016;28;20231;-72
2023/09/01 10:04:23;;;;;;;1.40;1.03;;;;;;;;;;5117277;28;20254;-71
2023/09/01 10:06:51;;;;;;;1.53;1.20;;;;;;;;;;5109645;28;20225;-72
2023/09/01 10:09:19;;;;;;;1.83;1.10;;;;;;;;;;5117259;28;20206;-69
2023/09/01 10:11:48;;;;;;;1.40;1.30;;;;;;;;;;5117850;28;20224;-71
2023/09/01 10:14:16;;;;;;;1.47;1.03;;;;;;;;;;5118318;28;20215;-71
2023/09/01 10:16:44;;;;;;;3.60;1.40;;;;;;;;;;5120330;28;20197;-70
2023/09/01 10:19:14;;;;;;;1.30;1.20;;;;;;;;;;5119799;28;20647;-71
2023/09/01 10:21:43;;;;;;;0.90;0.90;;;;;;;;;;5099374;28;20274;-73
2023/09/01 10:24:15;;;;;;;3.07;0.87;;;;;;;;;;5116899;28;20207;-71
2023/09/01 10:26:44;;;;;;;6.10;1.77;;;;;;;;;;5102768;28;20197;-69
2023/09/01 10:29:13;;;;;;;2.33;1.10;;;;;;;;;;5113964;28;20664;-73
2023/09/01 10:31:45;;;;;;;2.40;1.50;;;;;;;;;;5101240;28;20219;-75
2023/09/01 10:34:17;;;;;;;2.60;1.20;;;;;;;;;;5113272;28;20215;-73
2023/09/01 10:36:46;;;;;;;3.47;1.30;;;;;;;;;;5108634;28;20208;-74
2023/09/01 10:39:23;;;;;;;1.83;1.53;;;;;;;;;;5100736;28;20216;-75
2023/09/01 10:41:52;;;;;;;6.43;1.23;;;;;;;;;;5118816;28;20223;-73
2023/09/01 10:44:21;;;;;;;0.80;0.80;;;;;;;;;;5103519;28;20292;-74
2023/09/01 10:46:49;;;;;;;1.87;1.13;;;;;;;;;;5105726;28;20208;-72
2023/09/01 10:49:20;;;;;;;1.13;1.00;;;;;;;;;;5119926;28;20201;-72
2023/09/01 10:51:47;;;;;;;1.20;1.10;;;;;;;;;;5099393;28;20238;-72
2023/09/01 10:54:34;;;;;;;2.90;1.53;;;;;;;;;;5111639;28;20561;-74
2023/09/01 10:57:02;;;;;;;1.60;1.07;;;;;;;;;;5112552;28;20242;-73
2023/09/01 10:59:31;;;;;;;1.90;1.30;;;;;;;;;;5100929;28;20197;-73
2023/09/01 11:02:17;;;;;;;4.73;1.30;;;;;;;;;;5103221;28;20239;-74
2023/09/01 11:04:47;;;;;;;3.17;2.33;;;;;;;;;;5116466;27;20205;-72
2023/09/01 11:07:15;;;;;;;4.67;1.50;;;;;;;;;;5108264;28;20211;-71
2023/09/01 11:09:55;;;;;;;4.77;1.87;;;;;;;;;;5116024;28;20287;-73
2023/09/01 11:12:31;;;;;;;3.17;1.53;;;;;;;;;;5116769;28;20200;-72
2023/09/01 11:15:01;;;;;;;1.40;1.27;;;;;;;;;;5102765;28;20249;-73
2023/09/01 11:17:33;;;;;;;1.77;1.43;;;;;;;;;;5113215;28;20204;-72
2023/09/01 11:20:05;;;;;;;1.73;1.37;;;;;;;;;;5116866;28;20225;-71
2023/09/01 11:22:34;;;;;;;2.43;1.40;;;;;;;;;;5100850;28;20288;-72
2023/09/01 11:25:02;;;;;;;1.60;1.20;;;;;;;;;;5099233;28;20201;-72
2023/09/01 11:27:30;;;;;;;3.60;1.20;;;;;;;;;;5101201;28;20255;-71
2023/09/01 11:30:02;;;;;;;1.83;1.30;;;;;;;;;;5104240;28;20220;-73
2023/09/01 11:32:31;;;;;;;1.17;1.03;;;;;;;;;;5100123;28;20208;-72
2023/09/01 11:35:00;;;;;;;4.10;1.43;;;;;;;;;;5102498;28;20202;-72
2023/09/01 11:37:36;;;;;;;2.27;1.00;;;;;;;;;;5098922;28;20614;-72
2023/09/01 11:40:07;;;;;;;1.53;1.27;;;;;;;;;;5114430;28;20214;-72
2023/09/01 11:42:36;;;;;;;1.67;1.43;;;;;;;;;;5113370;28;20226;-73
2023/09/01 11:45:05;;;;;;;2.07;1.17;;;;;;;;;;5115837;28;20202;-74
2023/09/01 11:47:34;;;;;;;1.20;1.10;;;;;;;;;;5111203;28;20203;-72
2023/09/01 11:50:02;;;;;;;2.10;1.17;;;;;;;;;;5112985;28;20282;-74
2023/09/01 11:52:30;;;;;;;2.60;1.30;;;;;;;;;;5115332;28;20194;-73
2023/09/01 11:55:00;;;;;;;4.10;1.33;;;;;;;;;;5114554;28;20193;-74
2023/09/01 11:57:28;;;;;;;2.33;1.20;;;;;;;;;;5118892;28;20259;-74
2023/09/01 11:59:56;;;;;;;1.80;1.20;;;;;;;;;;5118410;28;20226;-74
2023/09/01 12:02:24;;;;;;;1.40;1.30;;;;;;;;;;5118086;28;20274;-74
2023/09/01 12:04:53;;;;;;;1.77;1.30;;;;;;;;;;5114174;28;20561;-72
2023/09/01 12:07:24;;;;;;;1.30;1.00;;;;;;;;;;5118466;28;20197;-73
2023/09/01 12:09:53;;;;;;;3.53;1.43;;;;;;;;;;5114745;28;20601;-74
2023/09/01 12:12:22;;;;;;;1.73;1.10;;;;;;;;;;5118515;28;20228;-72
2023/09/01 12:14:50;;;;;;;2.17;1.27;;;;;;;;;;5118336;28;20196;-73
2023/09/01 12:17:19;;;;;;;2.20;1.40;;;;;;;;;;5118038;28;20239;-73
2023/09/01 12:19:48;;;;;;;2.13;1.23;;;;;;;;;;5118376;28;20194;-73
2023/09/01 12:22:17;;;;;;;2.37;1.80;;;;;;;;;;5115651;28;20655;-73
2023/09/01 12:24:54;;;;;;;1.20;1.07;;;;;;;;;;5117542;28;20196;-72
2023/09/01 12:27:25;;;;;;;1.70;1.00;;;;;;;;;;5116703;28;20228;-75
2023/09/01 12:29:53;;;;;;;2.47;1.10;;;;;;;;;;5109369;28;20259;-76
2023/09/01 12:32:21;;;;;;;1.67;1.17;;;;;;;;;;5099167;28;20664;-76
2023/09/01 12:34:49;;;;;;;3.53;0.93;;;;;;;;;;5116438;28;20550;-76
2023/09/01 12:37:21;;;;;;;3.57;1.43;;;;;;;;;;5116142;28;20283;-76
2023/09/01 12:39:49;;;;;;;0.90;0.90;;;;;;;;;;5115601;28;20232;-76
2023/09/01 12:42:17;;;;;;;2.30;2.00;;;;;;;;;;5109890;28;20214;-76
2023/09/01 12:44:46;;;;;;;1.50;1.20;;;;;;;;;;5108144;28;20203;-76
2023/09/01 12:47:14;;;;;;;1.97;1.40;;;;;;;;;;5105301;28;20195;-76
2023/09/01 12:49:45;;;;;;;2.00;1.30;;;;;;;;;;5114761;28;20204;-76
2023/09/01 12:52:13;;;;;;;1.43;1.00;;;;;;;;;;5110089;28;20199;-76
2023/09/01 12:54:44;;;;;;;1.93;1.00;;;;;;;;;;5113617;28;20607;-76
2023/09/01 12:57:12;;;;;;;1.07;0.97;;;;;;;;;;5116323;28;20281;-75
2023/09/01 12:59:40;;;;;;;4.60;1.20;;;;;;;;;;5114706;28;20294;-76
2023/09/01 13:02:10;;;;;;;0.80;0.80;;;;;;;;;;5099950;28;20238;-77
2023/09/01 13:04:42;;;;;;;5.40;1.17;;;;;;;;;;5106582;28;20295;-76
2023/09/01 13:07:11;;;;;;;1.43;1.10;;;;;;;;;;5108460;28;20212;-77
2023/09/01 13:09:39;;;;;;;1.92;1.33;;;;;;;;;;5099299;28;20209;-76
2023/09/01 13:12:07;;;;;;;2.55;1.38;;;;;;;;;;5106345;28;20205;-76
2023/09/01 13:14:35;;;;;;;1.65;1.10;;;;;;;;;;5105209;28;20261;-76
2023/09/01 13:17:03;;;;;;;1.67;1.50;;;;;;;;;;5117668;28;20589;-76
2023/09/01 13:19:33;;;;;;;1.30;1.20;;;;;;;;;;5102237;28;20206;-77
2023/09/01 13:22:01;;;;;;;4.03;1.77;;;;;;;;;;5106860;28;20221;-76
2023/09/01 13:24:29;;;;;;;1.65;1.30;;;;;;;;;;5111102;27;20209;-77
2023/09/01 13:26:57;;;;;;;3.85;1.42;;;;;;;;;;5109453;28;20669;-76
2023/09/01 13:29:25;;;;;;;3.35;1.70;;;;;;;;;;5119355;28;20215;-76
2023/09/01 13:31:53;;;;;;;2.88;1.33;;;;;;;;;;5103473;28;20250;-76
2023/09/01 13:34:21;;;;;;;2.15;1.40;;;;;;;;;;5107573;28;20659;-77
2023/09/01 13:36:51;;;;;;;2.50;1.20;;;;;;;;;;5107776;28;20217;-76
2023/09/01 13:39:19;;;;;;;1.83;1.30;;;;;;;;;;5106236;28;20256;-78
2023/09/01 13:41:49;;;;;;;2.25;1.40;;;;;;;;;;5120235;28;20220;-77
2023/09/01 13:44:18;;;;;;;1.90;1.55;;;;;;;;;;5120426;27;20207;-78
2023/09/01 13:46:46;;;;;;;3.70;1.40;;;;;;;;;;5109460;28;20208;-76
2023/09/01 13:49:15;;;;;;;1.70;1.15;;;;;;;;;;5120096;28;20637;-77
2023/09/01 13:51:42;;;;;;;2.17;1.38;;;;;;;;;;5112918;28;20229;-74
2023/09/01 13:54:12;;;;;;;3.70;1.40;;;;;;;;;;5099747;28;20259;-75
2023/09/01 13:56:40;;;;;;;2.03;1.52;;;;;;;;;;5118514;28;20207;-75
2023/09/01 13:59:08;;;;;;;2.97;1.35;;;;;;;;;;5115898;28;20232;-75
2023/09/01 14:01:37;;;;;;;2.88;1.30;;;;;;;;;;5120022;28;20237;-77
2023/09/01 14:04:05;;;;;;;2.08;1.40;;;;;;;;;;5116382;28;20614;-76
2023/09/01 14:06:33;;;;;;;4.15;1.80;;;;;;;;;;5121441;28;20302;-77
2023/09/01 14:09:04;;;;;;;3.40;1.20;;;;;;;;;;5120947;28;20204;-76
2023/09/01 14:11:33;;;;;;;3.40;1.40;;;;;;;;;;5121052;28;20255;-77
2023/09/01 14:14:01;;;;;;;2.13;1.65;;;;;;;;;;5121081;28;20204;-77
2023/09/01 14:16:29;;;;;;;2.28;1.65;;;;;;;;;;5120951;28;20278;-78
2023/09/01 14:18:59;;;;;;;4.15;3.15;;;;;;;;;;5120252;28;20212;-75
2023/09/01 14:21:27;;;;;;;1.52;1.27;;;;;;;;;;5109693;28;20224;-76
2023/09/01 14:23:55;;;;;;;2.47;1.27;;;;;;;;;;5120640;28;20231;-75
2023/09/01 14:26:25;;;;;;;2.28;1.42;;;;;;;;;;5110386;28;20194;-75
2023/09/01 14:28:54;;;;;;;1.88;1.20;;;;;;;;;;5118766;28;20207;-74
2023/09/01 14:31:22;;;;;;;1.73;1.30;;;;;;;;;;5104057;28;20217;-73
2023/09/01 14:33:50;;;;;;;1.05;0.98;;;;;;;;;;5109896;28;20202;-73
2023/09/01 14:36:18;;;;;;;1.52;1.40;;;;;;;;;;5109868;28;20246;-73
2023/09/01 14:38:46;;;;;;;1.60;1.20;;;;;;;;;;5116628;28;20733;-73
2023/09/01 14:41:18;;;;;;;1.48;1.38;;;;;;;;;;5106099;28;20249;-73
2023/09/01 14:43:46;;;;;;;2.15;1.40;;;;;;;;;;5102226;28;20228;-73
2023/09/01 14:46:17;;;;;;;1.33;1.23;;;;;;;;;;5105078;28;20201;-73
2023/09/01 14:48:45;;;;;;;3.55;1.45;;;;;;;;;;5104171;28;20210;-73
2023/09/01 14:51:14;;;;;;;3.22;1.30;;;;;;;;;;5113402;28;20221;-73
2023/09/01 14:53:42;;;;;;;1.38;1.27;;;;;;;;;;5101874;28;20223;-73
2023/09/01 14:56:14;;;;;;;2.45;1.40;;;;;;;;;;5101823;28;20197;-73